Time;durP1;ratioP1;P1;durP2;ratioP2;P2;SDS_P1;SDS_P2;PMS_P1;PMS_P2;Temp;Humidity;BMP_temperature;BMP_pressure;BME280_temperature;BME280_humidity;BME280_pressure;Samples;Min_cycle;Max_cycle;Signal;HPM_P1;HPM_P2
2022/06/04 00:00:08;;;;;;;7.00;5.75;;;;;;;;;;2066000;28;20696;-56
2022/06/04 00:01:12;;;;;;;5.22;4.72;;;;;;;;;;2065879;28;20205;-54
2022/06/04 00:02:13;;;;;;;6.57;5.45;;;;;;;;;;2065944;28;20170;-54
2022/06/04 00:03:14;;;;;;;5.53;5.10;;;;;;;;;;2065706;28;20189;-56
2022/06/04 00:04:14;;;;;;;6.65;5.40;;;;;;;;;;2065014;28;20166;-55
2022/06/04 00:05:17;;;;;;;6.05;5.50;;;;;;;;;;2069868;28;20295;-54
2022/06/04 00:06:18;;;;;;;5.95;5.45;;;;;;;;;;2081465;28;20231;-52
2022/06/04 00:07:18;;;;;;;5.40;4.57;;;;;;;;;;2080707;28;20521;-55
2022/06/04 00:08:19;;;;;;;7.18;5.35;;;;;;;;;;2073886;28;20717;-58
2022/06/04 00:09:28;;;;;;;5.57;5.18;;;;;;;;;;2073867;28;20207;-57
2022/06/04 00:15:50;;;;;;;6.30;5.35;;;;;;;;;;2065731;28;20193;-56
2022/06/04 00:16:50;;;;;;;5.30;4.80;;;;;;;;;;2079799;28;20164;-56
2022/06/04 00:17:51;;;;;;;6.40;5.85;;;;;;;;;;2081326;28;20195;-57
2022/06/04 00:18:52;;;;;;;5.60;5.20;;;;;;;;;;2073976;28;20169;-55
2022/06/04 00:19:52;;;;;;;5.53;5.13;;;;;;;;;;2073093;28;20165;-54
2022/06/04 00:20:53;;;;;;;6.25;5.65;;;;;;;;;;2073256;28;20216;-52
2022/06/04 00:21:54;;;;;;;5.85;5.35;;;;;;;;;;2073681;28;20244;-58
2022/06/04 00:22:58;;;;;;;6.03;5.63;;;;;;;;;;2073841;28;20188;-57
2022/06/04 00:23:59;;;;;;;11.07;6.45;;;;;;;;;;2073107;28;20177;-54
2022/06/04 00:24:59;;;;;;;6.50;5.85;;;;;;;;;;2071196;28;20181;-54
2022/06/04 00:26:00;;;;;;;6.03;5.63;;;;;;;;;;2081264;28;20562;-58
2022/06/04 00:27:02;;;;;;;5.80;5.40;;;;;;;;;;2081300;28;20531;-57
2022/06/04 00:28:04;;;;;;;7.03;6.32;;;;;;;;;;2065470;28;20200;-55
2022/06/04 00:29:07;;;;;;;5.40;5.07;;;;;;;;;;2065709;28;20170;-53
2022/06/04 00:30:08;;;;;;;6.60;6.10;;;;;;;;;;2065666;28;20173;-55
2022/06/04 00:31:08;;;;;;;7.20;5.38;;;;;;;;;;2065661;28;20170;-58
2022/06/04 00:32:09;;;;;;;6.05;5.55;;;;;;;;;;2065552;28;20205;-53
2022/06/04 00:33:09;;;;;;;6.35;5.75;;;;;;;;;;2065795;28;20209;-56
2022/06/04 00:34:09;;;;;;;9.25;5.32;;;;;;;;;;2064762;28;20299;-57
2022/06/04 00:35:10;;;;;;;7.45;5.80;;;;;;;;;;2068825;28;20176;-55
2022/06/04 00:36:11;;;;;;;6.18;5.53;;;;;;;;;;2081269;28;20263;-59
2022/06/04 00:37:11;;;;;;;7.78;7.07;;;;;;;;;;2081322;28;20207;-56
2022/06/04 00:38:12;;;;;;;10.18;9.30;;;;;;;;;;2081102;28;20206;-55
2022/06/04 00:39:13;;;;;;;6.10;5.57;;;;;;;;;;2073724;28;20184;-53
2022/06/04 00:40:17;;;;;;;13.27;11.93;;;;;;;;;;2073628;28;20256;-53
2022/06/04 00:41:40;;;;;;;11.15;10.15;;;;;;;;;;2073623;28;20177;-55
2022/06/04 00:42:40;;;;;;;10.13;9.20;;;;;;;;;;2073701;28;20268;-53
2022/06/04 00:43:58;;;;;;;7.53;6.78;;;;;;;;;;2073728;28;20192;-51
2022/06/04 00:45:17;;;;;;;8.15;7.45;;;;;;;;;;2071035;28;20169;-56
2022/06/04 00:46:41;;;;;;;8.02;7.32;;;;;;;;;;2065379;28;20174;-54
2022/06/04 00:47:41;;;;;;;7.85;7.03;;;;;;;;;;2069309;28;20236;-56
2022/06/04 00:48:41;;;;;;;6.90;6.35;;;;;;;;;;2073133;28;20181;-52
2022/06/04 00:49:42;;;;;;;8.38;6.38;;;;;;;;;;2074769;28;20165;-54
2022/06/04 00:50:42;;;;;;;6.35;5.93;;;;;;;;;;2072854;28;20208;-55
2022/06/04 00:51:44;;;;;;;6.28;5.72;;;;;;;;;;2064872;28;20173;-53
2022/06/04 00:52:46;;;;;;;7.68;6.20;;;;;;;;;;2065120;28;20174;-55
2022/06/04 00:53:46;;;;;;;6.45;5.85;;;;;;;;;;2081198;28;20183;-59
2022/06/04 00:54:51;;;;;;;6.28;5.78;;;;;;;;;;2080115;28;20656;-56
2022/06/04 00:56:09;;;;;;;6.18;5.68;;;;;;;;;;2073540;28;20220;-55
2022/06/04 00:57:18;;;;;;;6.50;5.90;;;;;;;;;;2081004;28;20235;-51
2022/06/04 00:58:38;;;;;;;6.57;6.07;;;;;;;;;;2080201;28;20323;-53
2022/06/04 00:59:41;;;;;;;8.25;6.38;;;;;;;;;;2073582;28;20165;-55
2022/06/04 01:00:49;;;;;;;6.05;5.47;;;;;;;;;;2073139;28;20185;-55
2022/06/04 01:02:11;;;;;;;6.30;5.80;;;;;;;;;;2073930;28;20699;-55
2022/06/04 01:03:17;;;;;;;6.43;5.68;;;;;;;;;;2072836;28;20184;-55
2022/06/04 01:04:47;;;;;;;6.63;6.10;;;;;;;;;;2072390;28;20619;-55
2022/06/04 01:05:59;;;;;;;7.65;5.88;;;;;;;;;;2073605;28;20545;-58
2022/06/04 01:07:04;;;;;;;7.05;6.03;;;;;;;;;;2073509;28;20598;-58
2022/06/04 01:08:20;;;;;;;8.30;7.00;;;;;;;;;;2098847;23;20196;-55
2022/06/04 01:09:20;;;;;;;6.93;6.10;;;;;;;;;;2065702;28;20640;-65
2022/06/04 01:10:39;;;;;;;6.07;5.55;;;;;;;;;;2067510;28;20184;-58
2022/06/04 01:12:09;;;;;;;6.72;6.13;;;;;;;;;;2060424;28;20162;-57
2022/06/04 01:13:07;;;;;;;6.78;6.18;;;;;;;;;;2066767;28;20235;-56
2022/06/04 01:14:29;;;;;;;7.03;6.43;;;;;;;;;;2059519;28;20591;-55
2022/06/04 01:15:38;;;;;;;6.60;6.00;;;;;;;;;;2066545;28;20236;-58
2022/06/04 01:16:50;;;;;;;6.47;6.07;;;;;;;;;;2059822;28;20691;-56
2022/06/04 01:17:50;;;;;;;6.93;6.32;;;;;;;;;;2066669;28;20177;-53
2022/06/04 01:19:09;;;;;;;7.18;6.50;;;;;;;;;;2065138;28;20694;-60
2022/06/04 01:20:17;;;;;;;7.75;6.40;;;;;;;;;;2060104;28;20201;-58
2022/06/04 01:21:21;;;;;;;7.05;6.55;;;;;;;;;;2060375;28;20553;-56
2022/06/04 01:22:30;;;;;;;6.97;6.22;;;;;;;;;;2060840;28;20170;-59
2022/06/04 01:23:51;;;;;;;7.18;6.40;;;;;;;;;;2060426;28;20640;-59
2022/06/04 01:25:10;;;;;;;7.43;6.47;;;;;;;;;;2060126;28;20151;-55
2022/06/04 01:26:22;;;;;;;7.18;6.65;;;;;;;;;;2064553;28;20185;-57
2022/06/04 01:27:35;;;;;;;7.28;6.57;;;;;;;;;;2069607;28;20246;-59
2022/06/04 01:28:40;;;;;;;7.53;6.80;;;;;;;;;;2069191;28;20202;-57
2022/06/04 01:29:40;;;;;;;7.55;6.85;;;;;;;;;;2061651;28;20158;-57
2022/06/04 01:30:43;;;;;;;6.63;6.13;;;;;;;;;;2060297;28;20649;-57
2022/06/04 01:31:47;;;;;;;7.15;6.47;;;;;;;;;;2060937;28;20178;-57
2022/06/04 01:32:53;;;;;;;7.97;7.30;;;;;;;;;;2058618;28;20198;-58
2022/06/04 01:33:56;;;;;;;7.35;5.90;;;;;;;;;;2056493;28;20183;-58
2022/06/04 01:35:04;;;;;;;7.28;6.63;;;;;;;;;;2053345;29;20214;-58
2022/06/04 01:36:19;;;;;;;7.60;6.93;;;;;;;;;;2054248;29;20171;-58
2022/06/04 01:37:22;;;;;;;7.28;6.57;;;;;;;;;;2054784;28;20174;-59
2022/06/04 01:38:43;;;;;;;7.32;6.72;;;;;;;;;;2054823;28;20193;-58
2022/06/04 01:41:07;;;;;;;6.63;6.05;;;;;;;;;;2060308;28;20151;-57
2022/06/04 01:42:07;;;;;;;7.47;6.78;;;;;;;;;;2060644;28;20179;-56
2022/06/04 01:43:11;;;;;;;7.28;6.57;;;;;;;;;;2061023;28;20261;-58
2022/06/04 01:44:11;;;;;;;7.28;6.78;;;;;;;;;;2061330;28;20260;-56
2022/06/04 01:45:13;;;;;;;7.55;6.88;;;;;;;;;;2060036;28;20608;-58
2022/06/04 01:46:14;;;;;;;8.40;7.30;;;;;;;;;;2066063;28;20256;-58
2022/06/04 01:47:14;;;;;;;8.35;7.55;;;;;;;;;;2069912;28;20240;-56
2022/06/04 01:48:15;;;;;;;7.70;6.85;;;;;;;;;;2070139;28;20174;-58
2022/06/04 01:49:18;;;;;;;7.32;6.72;;;;;;;;;;2070889;28;20166;-58
2022/06/04 01:50:21;;;;;;;7.72;7.07;;;;;;;;;;2069892;28;20181;-57
2022/06/04 01:51:24;;;;;;;7.03;6.50;;;;;;;;;;2070594;28;20166;-58
2022/06/04 01:52:30;;;;;;;7.82;7.18;;;;;;;;;;2070804;28;20185;-58
2022/06/04 01:53:34;;;;;;;7.82;7.15;;;;;;;;;;2068452;28;20225;-57
2022/06/04 01:54:37;;;;;;;7.82;7.13;;;;;;;;;;2068060;28;20170;-57
2022/06/04 01:55:43;;;;;;;7.57;6.85;;;;;;;;;;2069485;28;20639;-59
2022/06/04 01:56:47;;;;;;;7.50;6.80;;;;;;;;;;2070551;28;20650;-57
2022/06/04 01:58:17;;;;;;;8.32;7.53;;;;;;;;;;2070524;28;20194;-56
2022/06/04 01:59:49;;;;;;;8.27;7.57;;;;;;;;;;2056689;28;20181;-56
2022/06/04 02:01:01;;;;;;;9.30;7.00;;;;;;;;;;2037411;29;20188;-56
2022/06/04 02:02:04;;;;;;;8.00;7.30;;;;;;;;;;2059637;28;20482;-58
2022/06/04 02:03:07;;;;;;;8.02;6.93;;;;;;;;;;2054134;29;20179;-59
2022/06/04 02:04:14;;;;;;;8.02;7.32;;;;;;;;;;2052888;28;20183;-57
2022/06/04 02:05:17;;;;;;;9.13;7.35;;;;;;;;;;2061803;28;20170;-58
2022/06/04 02:06:19;;;;;;;8.43;7.22;;;;;;;;;;2061313;28;20228;-58
2022/06/04 02:07:32;;;;;;;9.52;8.02;;;;;;;;;;2061214;28;20213;-58
2022/06/04 02:08:45;;;;;;;8.15;7.47;;;;;;;;;;2061606;28;20206;-57
2022/06/04 02:09:48;;;;;;;7.53;6.93;;;;;;;;;;2059247;28;20205;-52
2022/06/04 02:10:51;;;;;;;10.18;7.53;;;;;;;;;;2048528;29;20175;-57
2022/06/04 02:11:53;;;;;;;7.90;7.18;;;;;;;;;;2048668;29;20191;-55
2022/06/04 02:12:55;;;;;;;7.22;6.55;;;;;;;;;;2049113;29;20179;-56
2022/06/04 02:13:58;;;;;;;8.50;7.50;;;;;;;;;;2049112;28;20194;-56
2022/06/04 02:15:00;;;;;;;8.07;7.28;;;;;;;;;;2048663;28;20163;-54
2022/06/04 02:16:12;;;;;;;8.38;7.68;;;;;;;;;;2049210;28;20189;-56
2022/06/04 02:17:16;;;;;;;7.97;7.28;;;;;;;;;;2054258;28;20175;-54
2022/06/04 02:18:16;;;;;;;8.18;7.47;;;;;;;;;;2056339;28;20174;-58
2022/06/04 02:19:17;;;;;;;7.38;6.75;;;;;;;;;;2056493;28;20655;-56
2022/06/04 02:20:17;;;;;;;8.10;7.40;;;;;;;;;;2057046;28;20248;-56
2022/06/04 02:21:18;;;;;;;8.05;7.35;;;;;;;;;;2057061;28;20249;-57
2022/06/04 02:22:18;;;;;;;8.27;7.32;;;;;;;;;;2057261;28;20174;-56
2022/06/04 02:23:19;;;;;;;8.30;7.47;;;;;;;;;;2057239;28;20178;-53
2022/06/04 02:24:20;;;;;;;8.30;7.05;;;;;;;;;;2056403;28;20670;-52
2022/06/04 02:25:21;;;;;;;8.68;7.20;;;;;;;;;;2057226;28;20193;-54
2022/06/04 02:26:25;;;;;;;8.23;7.30;;;;;;;;;;2057279;28;20181;-56
2022/06/04 02:27:26;;;;;;;8.05;7.30;;;;;;;;;;2056065;28;20175;-56
2022/06/04 02:28:26;;;;;;;8.25;7.55;;;;;;;;;;2056481;28;20700;-57
2022/06/04 02:29:27;;;;;;;8.45;7.65;;;;;;;;;;2056793;28;20185;-54
2022/06/04 02:30:36;;;;;;;7.95;7.25;;;;;;;;;;2058312;28;20174;-54
2022/06/04 02:31:39;;;;;;;7.72;7.10;;;;;;;;;;2058701;28;20158;-54
2022/06/04 02:32:45;;;;;;;8.40;7.53;;;;;;;;;;2058791;28;20648;-57
2022/06/04 02:34:02;;;;;;;8.40;7.32;;;;;;;;;;2055498;28;20190;-54
2022/06/04 02:35:07;;;;;;;8.85;7.90;;;;;;;;;;2051015;28;20178;-57
2022/06/04 02:36:12;;;;;;;8.60;7.40;;;;;;;;;;2050243;29;20266;-56
2022/06/04 02:37:22;;;;;;;7.28;6.70;;;;;;;;;;2052096;28;20221;-54
2022/06/04 02:38:36;;;;;;;8.77;7.85;;;;;;;;;;2058613;28;20278;-54
2022/06/04 02:39:45;;;;;;;8.30;7.45;;;;;;;;;;2058136;28;20189;-56
2022/06/04 02:40:58;;;;;;;7.97;7.38;;;;;;;;;;2058969;28;20198;-53
2022/06/04 02:42:16;;;;;;;8.35;7.72;;;;;;;;;;2058768;28;20154;-56
2022/06/04 02:43:29;;;;;;;8.45;7.68;;;;;;;;;;2058763;28;20233;-54
2022/06/04 02:44:31;;;;;;;8.77;7.95;;;;;;;;;;2057203;28;20171;-53
2022/06/04 02:45:34;;;;;;;8.85;7.80;;;;;;;;;;2050363;28;20190;-56
2022/06/04 02:46:45;;;;;;;8.88;7.88;;;;;;;;;;2050455;28;20167;-55
2022/06/04 02:47:45;;;;;;;8.07;7.28;;;;;;;;;;2056199;28;20308;-53
2022/06/04 02:48:59;;;;;;;8.68;7.10;;;;;;;;;;2049926;28;20199;-55
2022/06/04 02:50:02;;;;;;;8.35;7.63;;;;;;;;;;2058214;28;20161;-54
2022/06/04 02:51:18;;;;;;;7.65;7.05;;;;;;;;;;2066755;28;20185;-55
2022/06/04 02:52:19;;;;;;;8.10;7.43;;;;;;;;;;2066949;28;20228;-55
2022/06/04 02:53:20;;;;;;;9.45;7.43;;;;;;;;;;2066565;28;20186;-55
2022/06/04 02:54:24;;;;;;;9.60;8.02;;;;;;;;;;2066083;28;20717;-54
2022/06/04 02:55:27;;;;;;;8.90;8.00;;;;;;;;;;2066773;28;20216;-55
2022/06/04 02:56:31;;;;;;;7.93;7.43;;;;;;;;;;2066589;28;20206;-53
2022/06/04 02:57:33;;;;;;;8.63;7.93;;;;;;;;;;2062608;28;20169;-55
2022/06/04 02:58:34;;;;;;;8.45;7.75;;;;;;;;;;2058429;28;20198;-53
2022/06/04 02:59:35;;;;;;;8.38;7.45;;;;;;;;;;2058051;28;20170;-56
2022/06/04 03:00:35;;;;;;;8.82;7.35;;;;;;;;;;2049969;28;20179;-56
2022/06/04 03:01:39;;;;;;;8.20;7.50;;;;;;;;;;2058139;28;20198;-56
2022/06/04 03:02:39;;;;;;;7.95;7.32;;;;;;;;;;2058643;28;20213;-56
2022/06/04 03:03:40;;;;;;;12.48;7.93;;;;;;;;;;2057916;28;20698;-55
2022/06/04 03:04:44;;;;;;;8.45;7.57;;;;;;;;;;2049167;29;20178;-54
2022/06/04 03:05:51;;;;;;;8.65;7.82;;;;;;;;;;2058083;28;20166;-58
2022/06/04 03:06:51;;;;;;;8.25;7.35;;;;;;;;;;2056093;28;20526;-55
2022/06/04 03:07:54;;;;;;;9.02;7.95;;;;;;;;;;2057985;28;20189;-57
2022/06/04 03:08:54;;;;;;;9.43;8.18;;;;;;;;;;2058420;28;20229;-57
2022/06/04 03:09:58;;;;;;;9.25;7.85;;;;;;;;;;2058476;28;20205;-54
2022/06/04 03:10:59;;;;;;;8.65;7.60;;;;;;;;;;2058187;28;20225;-54
2022/06/04 03:11:59;;;;;;;8.57;7.80;;;;;;;;;;2058124;28;20321;-57
2022/06/04 03:13:00;;;;;;;9.45;8.55;;;;;;;;;;2058103;28;20225;-58
2022/06/04 03:14:00;;;;;;;8.68;7.93;;;;;;;;;;2057857;28;20224;-58
2022/06/04 03:15:00;;;;;;;9.82;8.55;;;;;;;;;;2058468;28;20163;-55
2022/06/04 03:16:00;;;;;;;9.48;8.55;;;;;;;;;;2058331;28;20198;-56
2022/06/04 03:17:01;;;;;;;8.32;7.63;;;;;;;;;;2058127;28;20178;-56
2022/06/04 03:18:01;;;;;;;9.25;8.45;;;;;;;;;;2058541;28;20166;-54
2022/06/04 03:19:02;;;;;;;8.20;7.40;;;;;;;;;;2058492;28;20729;-55
2022/06/04 03:20:03;;;;;;;9.65;8.65;;;;;;;;;;2058458;28;20550;-54
2022/06/04 03:21:04;;;;;;;12.95;8.68;;;;;;;;;;2058664;28;20229;-56
2022/06/04 03:22:05;;;;;;;9.30;8.27;;;;;;;;;;2058468;28;20194;-56
2022/06/04 03:23:06;;;;;;;9.07;8.27;;;;;;;;;;2058323;28;20162;-54
2022/06/04 03:24:08;;;;;;;10.57;9.27;;;;;;;;;;2056888;28;20667;-56
2022/06/04 03:25:08;;;;;;;9.75;8.85;;;;;;;;;;2057466;28;20167;-56
2022/06/04 03:26:09;;;;;;;9.75;9.02;;;;;;;;;;2058211;28;20178;-56
2022/06/04 03:27:09;;;;;;;9.32;8.18;;;;;;;;;;2058194;28;20170;-57
2022/06/04 03:28:09;;;;;;;9.45;8.25;;;;;;;;;;2058387;28;20248;-55
2022/06/04 03:29:10;;;;;;;10.00;8.98;;;;;;;;;;2058826;28;20177;-55
2022/06/04 03:30:10;;;;;;;9.35;8.55;;;;;;;;;;2058463;28;20253;-53
2022/06/04 03:31:11;;;;;;;9.93;9.02;;;;;;;;;;2058637;28;20171;-55
2022/06/04 03:32:11;;;;;;;9.88;8.95;;;;;;;;;;2058428;28;20629;-55
2022/06/04 03:33:12;;;;;;;10.18;9.10;;;;;;;;;;2058632;28;20192;-59
2022/06/04 03:34:12;;;;;;;9.77;8.98;;;;;;;;;;2057521;28;20193;-56
2022/06/04 03:35:14;;;;;;;10.68;9.68;;;;;;;;;;2058753;28;20170;-56
2022/06/04 03:36:14;;;;;;;9.60;8.80;;;;;;;;;;2058936;28;20190;-56
2022/06/04 03:37:14;;;;;;;9.93;9.13;;;;;;;;;;2058709;28;20238;-53
2022/06/04 03:38:15;;;;;;;9.48;8.77;;;;;;;;;;2058726;28;20560;-54
2022/06/04 03:39:15;;;;;;;10.43;8.75;;;;;;;;;;2058699;28;20166;-57
2022/06/04 03:40:16;;;;;;;10.77;9.68;;;;;;;;;;2058633;28;20170;-56
2022/06/04 03:41:16;;;;;;;9.85;8.88;;;;;;;;;;2058771;28;20221;-54
2022/06/04 03:42:16;;;;;;;9.45;8.65;;;;;;;;;;2057507;28;20171;-55
2022/06/04 03:43:17;;;;;;;9.52;8.63;;;;;;;;;;2057714;28;20189;-54
2022/06/04 03:44:17;;;;;;;10.70;9.60;;;;;;;;;;2056576;28;20166;-53
2022/06/04 03:45:18;;;;;;;11.00;9.88;;;;;;;;;;2058379;28;20601;-58
2022/06/04 03:46:19;;;;;;;11.60;10.15;;;;;;;;;;2058266;28;20778;-56
2022/06/04 03:47:19;;;;;;;10.45;9.50;;;;;;;;;;2056859;28;20221;-53
2022/06/04 03:48:20;;;;;;;10.48;9.40;;;;;;;;;;2057439;28;20329;-55
2022/06/04 03:49:20;;;;;;;9.95;9.05;;;;;;;;;;2050386;28;20652;-55
2022/06/04 03:50:22;;;;;;;10.80;9.70;;;;;;;;;;2064024;28;20232;-57
2022/06/04 03:51:24;;;;;;;14.45;10.02;;;;;;;;;;2065726;28;20162;-55
2022/06/04 03:52:24;;;;;;;10.65;9.65;;;;;;;;;;2057611;28;20162;-56
2022/06/04 03:53:24;;;;;;;12.48;9.82;;;;;;;;;;2057623;28;20186;-55
2022/06/04 03:55:44;;;;;;;10.40;9.30;;;;;;;;;;2066134;28;20194;-54
2022/06/04 03:57:37;;;;;;;11.50;9.20;;;;;;;;;;2063784;28;20657;-58
2022/06/04 03:58:04;;;;;;;9.93;9.02;;;;;;;;;;2057998;28;20257;-58
2022/06/04 03:59:04;;;;;;;10.25;9.30;;;;;;;;;;2058126;28;20158;-58
2022/06/04 04:00:17;;;;;;;10.43;9.43;;;;;;;;;;2058341;28;20225;-56
2022/06/04 04:01:23;;;;;;;9.75;8.77;;;;;;;;;;2058044;28;20205;-56
2022/06/04 04:02:23;;;;;;;10.50;9.38;;;;;;;;;;2058044;28;20185;-53
2022/06/04 04:03:23;;;;;;;9.80;8.95;;;;;;;;;;2058058;28;20554;-53
2022/06/04 04:04:24;;;;;;;10.40;9.32;;;;;;;;;;2057238;28;20166;-57
2022/06/04 04:05:26;;;;;;;9.82;9.02;;;;;;;;;;2058021;28;20579;-57
2022/06/04 04:06:28;;;;;;;10.55;9.57;;;;;;;;;;2057624;28;20228;-54
2022/06/04 04:07:28;;;;;;;10.60;9.55;;;;;;;;;;2049394;28;20229;-55
2022/06/04 04:08:28;;;;;;;10.10;9.30;;;;;;;;;;2057584;28;20622;-55
2022/06/04 04:09:29;;;;;;;10.63;9.35;;;;;;;;;;2050021;28;20190;-53
2022/06/04 04:10:30;;;;;;;10.82;9.77;;;;;;;;;;2050150;29;20648;-54
2022/06/04 04:11:30;;;;;;;11.02;9.93;;;;;;;;;;2050577;28;20540;-56
2022/06/04 04:12:30;;;;;;;11.07;9.52;;;;;;;;;;2049673;29;20183;-57
2022/06/04 04:13:31;;;;;;;11.05;9.95;;;;;;;;;;2049386;29;20167;-55
2022/06/04 04:14:31;;;;;;;10.95;8.88;;;;;;;;;;2049157;29;20174;-54
2022/06/04 04:15:31;;;;;;;10.10;9.18;;;;;;;;;;2049771;29;20198;-56
2022/06/04 04:16:32;;;;;;;10.73;9.57;;;;;;;;;;2050991;28;20254;-54
2022/06/04 04:17:32;;;;;;;12.05;9.55;;;;;;;;;;2057467;28;20178;-56
2022/06/04 04:18:34;;;;;;;10.77;8.80;;;;;;;;;;2057925;28;20236;-55
2022/06/04 04:19:34;;;;;;;10.18;9.23;;;;;;;;;;2058020;28;20186;-58
2022/06/04 04:20:36;;;;;;;10.52;9.55;;;;;;;;;;2057838;28;20170;-54
2022/06/04 04:21:40;;;;;;;10.55;9.57;;;;;;;;;;2057764;28;20174;-55
2022/06/04 04:22:40;;;;;;;11.15;9.85;;;;;;;;;;2057981;28;20232;-56
2022/06/04 04:23:41;;;;;;;11.35;9.38;;;;;;;;;;2057815;28;20220;-56
2022/06/04 04:24:42;;;;;;;11.15;10.05;;;;;;;;;;2057004;28;20837;-53
2022/06/04 04:25:42;;;;;;;11.30;10.13;;;;;;;;;;2057160;28;20190;-57
2022/06/04 04:26:43;;;;;;;10.93;9.23;;;;;;;;;;2057038;28;20186;-55
2022/06/04 04:27:43;;;;;;;11.82;10.02;;;;;;;;;;2049777;28;20596;-58
2022/06/04 04:28:43;;;;;;;10.70;9.57;;;;;;;;;;2049778;29;20226;-56
2022/06/04 04:29:44;;;;;;;13.82;9.77;;;;;;;;;;2049144;29;20175;-55
2022/06/04 04:30:45;;;;;;;10.30;9.05;;;;;;;;;;2049206;29;20555;-57
2022/06/04 04:31:45;;;;;;;10.45;9.38;;;;;;;;;;2049981;28;20194;-53
2022/06/04 04:32:46;;;;;;;9.30;8.50;;;;;;;;;;2049178;28;20170;-55
2022/06/04 04:33:46;;;;;;;9.80;8.88;;;;;;;;;;2054334;28;20186;-56
2022/06/04 04:34:46;;;;;;;13.10;9.27;;;;;;;;;;2054528;28;20190;-54
2022/06/04 04:35:47;;;;;;;10.27;9.10;;;;;;;;;;2042661;29;20235;-56
2022/06/04 04:36:47;;;;;;;9.60;8.80;;;;;;;;;;2055054;28;20182;-54
2022/06/04 04:37:48;;;;;;;10.35;9.18;;;;;;;;;;2057154;28;20174;-56
2022/06/04 04:38:49;;;;;;;9.35;8.55;;;;;;;;;;2057621;28;20182;-57
2022/06/04 04:39:50;;;;;;;9.43;8.52;;;;;;;;;;2057172;28;20178;-57
2022/06/04 04:40:50;;;;;;;9.73;8.82;;;;;;;;;;2057001;28;20180;-53
2022/06/04 04:41:50;;;;;;;10.93;9.82;;;;;;;;;;2057734;28;20167;-55
2022/06/04 04:42:51;;;;;;;11.55;9.02;;;;;;;;;;2057454;28;20535;-56
2022/06/04 04:43:52;;;;;;;10.05;9.10;;;;;;;;;;2056937;28;20241;-59
2022/06/04 04:44:52;;;;;;;9.77;8.55;;;;;;;;;;2056630;28;20189;-54
2022/06/04 04:45:59;;;;;;;14.65;9.25;;;;;;;;;;2057447;28;20198;-56
2022/06/04 04:47:00;;;;;;;9.75;8.82;;;;;;;;;;2058168;28;20218;-56
2022/06/04 04:48:00;;;;;;;9.75;8.45;;;;;;;;;;2057848;28;20171;-55
2022/06/04 04:49:01;;;;;;;9.90;8.98;;;;;;;;;;2057860;28;20182;-54
2022/06/04 04:50:03;;;;;;;9.93;8.38;;;;;;;;;;2062222;28;20277;-54
2022/06/04 04:51:04;;;;;;;10.00;9.07;;;;;;;;;;2065683;28;20181;-56
2022/06/04 04:52:04;;;;;;;9.73;8.93;;;;;;;;;;2065180;28;20181;-53
2022/06/04 04:53:07;;;;;;;9.52;8.55;;;;;;;;;;2065266;28;20170;-54
2022/06/04 04:54:07;;;;;;;10.07;8.45;;;;;;;;;;2064553;28;20537;-54
2022/06/04 04:55:07;;;;;;;11.15;9.23;;;;;;;;;;2066038;28;20224;-53
2022/06/04 04:56:08;;;;;;;9.32;8.40;;;;;;;;;;2061711;28;20254;-54
2022/06/04 04:57:08;;;;;;;9.98;9.15;;;;;;;;;;2058013;28;20252;-54
2022/06/04 04:58:09;;;;;;;10.20;9.30;;;;;;;;;;2057903;28;20178;-54
2022/06/04 04:59:09;;;;;;;8.68;7.82;;;;;;;;;;2058126;28;20182;-56
2022/06/04 05:00:10;;;;;;;9.80;8.98;;;;;;;;;;2057858;28;20661;-53
2022/06/04 05:01:18;;;;;;;10.23;9.32;;;;;;;;;;2057767;28;20213;-52
2022/06/04 05:02:18;;;;;;;10.35;9.15;;;;;;;;;;2057773;28;20177;-54
2022/06/04 05:03:19;;;;;;;10.18;9.10;;;;;;;;;;2057584;28;20676;-56
2022/06/04 05:04:20;;;;;;;9.88;8.88;;;;;;;;;;2057039;28;20181;-54
2022/06/04 05:05:21;;;;;;;9.40;8.60;;;;;;;;;;2057821;28;20200;-55
2022/06/04 05:06:22;;;;;;;9.73;8.80;;;;;;;;;;2057627;28;20181;-55
2022/06/04 05:07:22;;;;;;;9.40;8.60;;;;;;;;;;2057396;28;20220;-54
2022/06/04 05:08:23;;;;;;;9.98;9.07;;;;;;;;;;2057133;28;20645;-55
2022/06/04 05:09:23;;;;;;;9.65;8.70;;;;;;;;;;2057825;28;20159;-55
2022/06/04 05:10:24;;;;;;;9.13;8.40;;;;;;;;;;2057703;28;20170;-54
2022/06/04 05:11:29;;;;;;;8.70;7.88;;;;;;;;;;2057665;28;20816;-56
2022/06/04 05:12:30;;;;;;;10.57;8.98;;;;;;;;;;2057612;28;20198;-55
2022/06/04 05:13:30;;;;;;;9.27;8.57;;;;;;;;;;2057364;28;20277;-53
2022/06/04 05:14:31;;;;;;;9.43;8.48;;;;;;;;;;2056637;28;20162;-54
2022/06/04 05:15:31;;;;;;;10.13;9.13;;;;;;;;;;2056749;28;20672;-56
2022/06/04 05:16:33;;;;;;;11.18;8.80;;;;;;;;;;2051262;28;20210;-54
2022/06/04 05:17:33;;;;;;;9.43;8.55;;;;;;;;;;2049505;28;20167;-57
2022/06/04 05:18:34;;;;;;;9.77;8.93;;;;;;;;;;2048653;29;20209;-57
2022/06/04 05:19:35;;;;;;;10.65;9.68;;;;;;;;;;2048964;29;20162;-55
2022/06/04 05:20:35;;;;;;;9.93;9.02;;;;;;;;;;2049248;28;20175;-55
2022/06/04 05:21:40;;;;;;;9.45;8.65;;;;;;;;;;2049483;28;20186;-53
2022/06/04 05:22:41;;;;;;;9.63;8.40;;;;;;;;;;2048840;28;20175;-54
2022/06/04 05:23:41;;;;;;;9.23;8.40;;;;;;;;;;2048990;29;20211;-54
2022/06/04 05:24:43;;;;;;;9.10;8.40;;;;;;;;;;2048529;29;20174;-53
2022/06/04 05:25:44;;;;;;;9.48;8.68;;;;;;;;;;2049654;28;20190;-54
2022/06/04 05:26:44;;;;;;;8.27;7.70;;;;;;;;;;2057287;28;20639;-53
2022/06/04 05:27:45;;;;;;;11.13;8.80;;;;;;;;;;2057500;28;20541;-57
2022/06/04 05:28:45;;;;;;;11.75;9.13;;;;;;;;;;2057320;28;20218;-54
2022/06/04 05:29:45;;;;;;;9.43;8.48;;;;;;;;;;2048943;29;20225;-56
2022/06/04 05:30:46;;;;;;;9.88;8.90;;;;;;;;;;2048930;29;20175;-55
2022/06/04 05:31:46;;;;;;;9.85;8.98;;;;;;;;;;2057498;28;20178;-53
2022/06/04 05:32:47;;;;;;;10.57;8.43;;;;;;;;;;2057418;28;20253;-54
2022/06/04 05:33:47;;;;;;;10.75;8.65;;;;;;;;;;2053312;28;20884;-53
2022/06/04 05:34:47;;;;;;;10.05;9.05;;;;;;;;;;2048379;28;20178;-54
2022/06/04 05:35:48;;;;;;;11.02;9.07;;;;;;;;;;2049876;28;20586;-52
2022/06/04 05:36:48;;;;;;;15.00;9.27;;;;;;;;;;2056720;28;20658;-54
2022/06/04 05:37:49;;;;;;;9.52;8.63;;;;;;;;;;2056807;28;20205;-57
2022/06/04 05:38:49;;;;;;;10.55;9.18;;;;;;;;;;2057252;28;20178;-53
2022/06/04 05:39:49;;;;;;;9.55;8.63;;;;;;;;;;2057244;28;20173;-54
2022/06/04 05:40:57;;;;;;;9.38;8.38;;;;;;;;;;2057414;28;20186;-54
2022/06/04 05:41:57;;;;;;;9.02;8.13;;;;;;;;;;2060244;28;20212;-53
2022/06/04 05:42:58;;;;;;;9.35;8.00;;;;;;;;;;2065260;28;20213;-54
2022/06/04 05:43:58;;;;;;;8.85;7.60;;;;;;;;;;2056997;28;20560;-58
2022/06/04 05:45:00;;;;;;;9.70;8.70;;;;;;;;;;2056861;28;20194;-55
2022/06/04 05:46:01;;;;;;;9.73;8.85;;;;;;;;;;2057298;28;20233;-53
2022/06/04 05:47:04;;;;;;;24.83;10.52;;;;;;;;;;2057195;28;20174;-55
2022/06/04 05:48:05;;;;;;;13.85;8.77;;;;;;;;;;2057235;28;20739;-53
2022/06/04 05:49:05;;;;;;;11.07;8.77;;;;;;;;;;2057227;28;20177;-59
2022/06/04 05:50:06;;;;;;;11.98;9.45;;;;;;;;;;2062221;28;20181;-56
2022/06/04 05:51:08;;;;;;;11.38;8.80;;;;;;;;;;2065205;28;20658;-52
2022/06/04 05:52:09;;;;;;;8.82;7.95;;;;;;;;;;2065302;28;20169;-53
2022/06/04 05:53:09;;;;;;;9.68;8.88;;;;;;;;;;2064966;28;20713;-55
2022/06/04 05:54:09;;;;;;;9.05;8.13;;;;;;;;;;2056448;28;20233;-56
2022/06/04 05:55:10;;;;;;;11.52;8.63;;;;;;;;;;2057102;28;20174;-56
2022/06/04 05:56:12;;;;;;;11.85;8.20;;;;;;;;;;2057219;28;20538;-56
2022/06/04 05:57:12;;;;;;;11.60;8.25;;;;;;;;;;2057137;28;20185;-57
2022/06/04 05:58:13;;;;;;;10.10;8.90;;;;;;;;;;2057211;28;20257;-55
2022/06/04 05:59:14;;;;;;;9.57;8.63;;;;;;;;;;2056627;28;20166;-56
2022/06/04 06:00:15;;;;;;;11.05;8.40;;;;;;;;;;2048779;28;20213;-55
2022/06/04 06:01:17;;;;;;;9.02;8.07;;;;;;;;;;2056621;28;20233;-55
2022/06/04 06:02:17;;;;;;;11.38;8.10;;;;;;;;;;2057257;28;20170;-55
2022/06/04 06:03:18;;;;;;;12.63;8.88;;;;;;;;;;2056965;28;20170;-56
2022/06/04 06:04:19;;;;;;;9.68;8.73;;;;;;;;;;2058388;28;20709;-57
2022/06/04 06:05:20;;;;;;;9.65;8.80;;;;;;;;;;2059168;28;20180;-56
2022/06/04 06:06:22;;;;;;;19.00;10.30;;;;;;;;;;2059977;28;20167;-57
2022/06/04 06:07:22;;;;;;;63.85;18.48;;;;;;;;;;2059410;28;20175;-58
2022/06/04 06:08:23;;;;;;;66.25;19.75;;;;;;;;;;2059240;28;20292;-58
2022/06/04 06:09:23;;;;;;;39.38;13.82;;;;;;;;;;2059510;28;20164;-54
2022/06/04 06:10:23;;;;;;;10.18;9.18;;;;;;;;;;2058989;28;20254;-57
2022/06/04 06:11:24;;;;;;;10.85;9.10;;;;;;;;;;2059133;28;20170;-56
2022/06/04 06:12:24;;;;;;;9.75;8.75;;;;;;;;;;2057605;28;20655;-58
2022/06/04 06:13:25;;;;;;;9.43;8.45;;;;;;;;;;2057989;28;20202;-59
2022/06/04 06:14:25;;;;;;;10.63;9.52;;;;;;;;;;2058378;28;20162;-57
2022/06/04 06:15:25;;;;;;;8.93;8.10;;;;;;;;;;2058932;28;20659;-59
2022/06/04 06:16:27;;;;;;;9.65;8.75;;;;;;;;;;2058623;28;20170;-58
2022/06/04 06:17:28;;;;;;;9.23;8.43;;;;;;;;;;2051220;29;20187;-58
2022/06/04 06:18:28;;;;;;;9.85;8.30;;;;;;;;;;2050873;29;20187;-57
2022/06/04 06:19:28;;;;;;;9.63;8.07;;;;;;;;;;2051906;29;20167;-58
2022/06/04 06:20:29;;;;;;;9.23;8.32;;;;;;;;;;2054759;28;20225;-58
2022/06/04 06:21:31;;;;;;;9.45;8.55;;;;;;;;;;2056854;28;20270;-56
2022/06/04 06:22:31;;;;;;;9.63;8.40;;;;;;;;;;2058986;28;20280;-58
2022/06/04 06:23:32;;;;;;;9.90;8.63;;;;;;;;;;2060644;28;20174;-57
2022/06/04 06:24:32;;;;;;;11.70;8.20;;;;;;;;;;2065343;28;20209;-58